Latest Coastal Weather Observations for Devonport Airport

IDV60701

Issued at 7:52 pm EST Monday 4 May 2026 (issued every 10 minutes, with the page automatically refreshed every 10 minutes)

About coastal observations | Map of coastal stations | Coastal observations for VIC | Marine services | Other Formats
Station Details ID: 091126 Name: DEVONPORT AIRPORT Lat: -41.17 Lon: 146.43 Height: 8.0 m
Data from the previous 72 hours. | See also: Recent months at Devonport Airport
Date/Time
EST
Wind Sea
Height
m
Swell Vis
km
Cloud Weather Temp
°C
Press
MSL
hPa
Rain since
9am
mm
Dir  Spd
kts
Gust
kts
Height
m
Period
s
Dir
04/07:30pm N 17 21 - - - - 10 Partly cloudy - 16.5 1008.3 0.0
04/07:00pm N 18 22 - - - - 10 Partly cloudy - 16.4 1008.4 0.0
04/06:30pm NNW 17 22 - - - - 10 Partly cloudy - 16.2 1008.3 0.0
04/06:00pm NNW 19 24 - - - - 10 Cloudy Thunderstorm 16.2 1008.0 0.0
04/05:30pm NW 17 26 - - - - 10 Partly cloudy - 15.2 1008.0 0.0
04/05:00pm N 15 20 - - - - 10 Mostly clear - 16.4 1007.9 0.0
04/04:30pm N 16 19 - - - - 10 Mostly clear - 16.5 1008.2 0.0
04/04:00pm NNW 17 22 - - - - 10 Mostly clear - 16.7 1008.3 0.0
04/03:30pm NNW 18 22 - - - - 10 Mostly clear - 16.7 1008.3 0.0
04/03:00pm N 18 24 - - - - 10 Cloudy - 16.7 1008.4 0.0
04/02:30pm N 18 22 - - - - 10 Mostly clear - 17.5 1008.3 0.0
04/02:00pm N 16 20 - - - - 10 Partly cloudy - 17.7 1008.4 0.0
04/01:30pm N 15 20 - - - - 10 Partly cloudy - 16.5 1008.7 0.0
04/01:00pm N 16 20 - - - - 10 Cloudy - 16.4 1009.1 0.0
04/12:30pm N 16 19 - - - - 10 Partly cloudy - 17.2 1009.3 0.0
04/12:00pm N 16 20 - - - - 10 Cloudy Rain 17.4 1009.8 0.0
04/11:30am N 13 17 - - - - 10 Mostly clear - 17.7 1010.2 0.0
04/11:00am N 14 18 - - - - 10 Mostly clear - 17.2 1010.5 0.0
04/10:30am N 15 19 - - - - 10 Mostly clear - 16.5 1010.5 0.0
04/10:00am NNW 16 19 - - - - 10 Partly cloudy - 16.4 1010.5 0.0
04/09:30am NNW 13 17 - - - - 10 Partly cloudy - 16.2 1010.6 0.0
04/09:00am SSW 5 6 - - - - 10 Cloudy - 13.7 1010.6 18.0
04/08:30am SSE 5 7 - - - - 10 Mostly clear - 13.2 1010.5 18.0
04/08:00am SSE 4 5 - - - - 10 Partly cloudy - 13.1 1010.6 18.0
04/07:30am S 6 8 - - - - 10 Partly cloudy - 11.9 1010.2 18.0
04/07:00am S 5 7 - - - - 10 Partly cloudy - 12.8 1010.2 18.0
04/06:30am S 5 7 - - - - 10 Cloudy - 12.5 1010.0 18.0
04/06:00am SW 5 6 - - - - 10 Cloudy - 13.6 1010.3 18.0
04/05:44am SSW 5 7 - - - - 10 Mostly clear - 13.3 1010.0 18.0
04/05:30am SW 7 11 - - - - 10 Partly cloudy - 13.6 1009.9 18.0
04/05:00am NW 9 15 - - - - 10 Partly cloudy - 15.5 1009.6 18.0
04/04:30am WSW 7 13 - - - - 10 Cloudy - 14.0 1009.7 18.0
04/04:19am NNW 12 20 - - - - 10 Partly cloudy - 13.9 1009.9 18.0
04/04:00am SSE 6 7 - - - - 10 Partly cloudy - 13.1 1010.0 18.0
04/03:54am SSE 5 7 - - - - 10 Partly cloudy - 12.7 1010.0 18.0
04/03:53am SSE 5 7 - - - - 10 Partly cloudy - 12.7 1010.1 18.0
04/03:43am SE 3 4 - - - - 10 Mostly clear - 12.6 1010.1 18.0
04/03:30am SSE 4 5 - - - - 10 Mostly clear - 12.3 1010.3 18.0
04/03:20am SSE 5 6 - - - - 10 Partly cloudy - 12.2 1010.5 18.0
04/03:06am SSE 3 5 - - - - 10 Partly cloudy - 12.1 1010.5 18.0
04/03:00am SSE 3 4 - - - - 10 Cloudy - 12.1 1010.7 18.0
04/02:30am S 3 4 - - - - 10 Mostly clear - 12.1 1010.7 18.0
04/02:00am SW 4 6 - - - - 10 Mostly clear - 12.3 1010.9 18.0
04/01:30am W 3 4 - - - - 10 - - 12.4 1010.9 18.0
04/01:00am WNW 4 6 - - - - 10 - - 13.0 1011.0 18.0
04/12:30am WNW 2 4 - - - - 10 - - 12.4 1010.7 18.0
04/12:00am SW 5 5 - - - - 10 Cloudy - 12.3 1010.2 18.0
 
Date/Time
EST
Wind Sea
Height
m
Swell Vis
km
Cloud Weather Temp
°C
Press
MSL
hPa
Rain since
9am
mm
Dir  Spd
kts
Gust
kts
Height
m
Period
s
Dir
03/11:30pm SSW 3 5 - - - - 10 - - 13.4 1011.2 18.0
03/11:00pm WSW 7 7 - - - - 10 - - 13.9 1011.3 18.0
03/10:30pm WNW 9 11 - - - - 10 - - 15.4 1011.6 18.0
03/10:00pm NW 9 11 - - - - 10 - - 15.7 1011.0 18.0
03/09:30pm WNW 6 8 - - - - 10 - - 15.6 1011.0 18.0
03/09:00pm NNW 10 13 - - - - 10 Partly cloudy - 15.9 1011.2 18.0
03/08:46pm N 12 15 - - - - 10 Mostly clear - 16.2 1011.1 18.0
03/08:30pm N 12 16 - - - - 10 Partly cloudy - 16.3 1011.0 18.0
03/08:00pm NNE 12 15 - - - - 10 Partly cloudy - 16.7 1010.5 18.0
03/07:30pm NNE 15 18 - - - - 10 Cloudy - 16.7 1010.7 18.0
03/07:00pm NE 13 16 - - - - 10 Mostly clear - 16.4 1010.8 18.0
03/06:59pm NE 13 16 - - - - 10 Mostly clear - 16.4 1010.8 18.0
03/06:36pm NNE 14 16 - - - - 5 Cloudy - 16.6 1010.5 17.2
03/06:30pm NE 14 18 - - - - 10 Partly cloudy - 16.8 1010.3 16.4
03/06:00pm NE 14 17 - - - - 10 Cloudy Recent precip. 16.4 1010.2 16.4
03/05:30pm ENE 12 16 - - - - 10 Cloudy - 16.3 1010.0 16.4
03/05:16pm NE 11 14 - - - - 10 Mostly clear - 16.3 1010.1 16.4
03/05:13pm NE 12 15 - - - - 10 Mostly clear - 16.3 1010.2 16.4
03/05:00pm NE 12 16 - - - - 5 Partly cloudy - 16.4 1010.3 16.2
03/04:30pm NE 15 18 - - - - 3 Partly cloudy - 16.5 1010.5 14.0
03/04:07pm NE 15 18 - - - - 6 Partly cloudy - 16.6 1010.6 13.2
03/04:00pm NE 15 19 - - - - 8 Partly cloudy - 16.6 1010.7 13.2
03/03:37pm NE 13 15 - - - - 10 Partly cloudy - 16.6 1011.0 13.2
03/03:30pm NE 11 14 - - - - 10 Mostly clear - 16.6 1011.0 13.2
03/03:00pm NE 13 16 - - - - 9 Cloudy Rain 16.5 1011.2 13.0
03/02:49pm NE 14 18 - - - - 8 Mostly clear - 16.5 1011.3 13.0
03/02:44pm NE 15 19 - - - - 8 Mostly clear - 16.5 1011.5 12.8
03/02:30pm NNE 16 23 - - - - 4 Partly cloudy - 16.7 1011.6 12.6
03/02:26pm NNE 15 23 - - - - 3 Partly cloudy - 16.6 1011.7 12.4
03/02:00pm NNE 6 9 - - - - 4 Partly cloudy - 17.0 1011.7 8.6
03/01:51pm NE 4 6 - - - - 6 Partly cloudy - 16.9 1011.4 7.2
03/01:49pm NE 3 5 - - - - 8 Partly cloudy - 17.0 1011.3 6.8
03/01:30pm E 5 7 - - - - 10 Cloudy - 16.9 1010.8 6.0
03/01:00pm SSE 8 11 - - - - 10 Mostly clear - 16.7 1011.0 5.6
03/12:30pm SE 9 12 - - - - 10 Mostly clear - 16.5 1011.6 5.6
03/12:00pm SE 10 13 - - - - 10 Cloudy Showers 15.8 1012.4 5.6
03/11:30am SE 8 13 - - - - 10 Partly cloudy - 15.6 1013.4 5.4
03/11:00am SSE 7 9 - - - - 10 Partly cloudy - 15.4 1013.8 5.2
03/10:30am SSE 8 10 - - - - 10 Partly cloudy - 15.1 1014.1 4.4
03/10:24am SSE 9 10 - - - - 10 Mostly clear - 15.1 1014.4 4.4
03/10:00am SSE 7 9 - - - - 8 Partly cloudy - 14.9 1014.9 3.0
03/09:50am SSE 7 9 - - - - 6 Partly cloudy - 15.0 1015.1 2.2
03/09:30am S 5 7 - - - - 10 Partly cloudy - 14.9 1015.5 1.0
03/09:00am S 5 7 - - - - 7 Cloudy Showers 14.6 1015.9 2.0
03/08:30am SW 5 7 - - - - 10 Mostly clear - 14.7 1015.5 0.6
03/08:00am SSE 6 7 - - - - 10 Partly cloudy - 15.0 1014.7 0.2
03/07:30am SSE 8 9 - - - - 10 Partly cloudy - 14.8 1014.3 0.2
03/07:00am SSE 9 11 - - - - 10 Partly cloudy - 14.7 1014.4 0.2
03/06:30am SSE 8 10 - - - - 10 Mostly clear - 14.8 1014.8 0.0
03/06:00am SSE 8 10 - - - - 10 Cloudy Rain 14.8 1014.9 0.0
03/05:30am SSE 7 9 - - - - 10 Partly cloudy - 15.0 1015.2 0.0
03/05:00am SSE 6 9 - - - - 10 Cloudy - 15.3 1015.5 0.0
03/04:30am SSE 8 9 - - - - 10 Cloudy - 15.4 1015.2 0.0
03/04:00am S 7 9 - - - - 10 Cloudy - 15.2 1015.3 0.0
03/03:30am SSE 7 9 - - - - 10 Cloudy - 15.2 1015.4 0.0
03/03:00am SSE 9 12 - - - - 10 Mostly cloudy Showers 15.1 1015.6 0.0
03/02:30am SSE 8 10 - - - - 10 Cloudy - 15.3 1016.0 0.0
03/02:00am SSE 8 9 - - - - 10 Cloudy - 15.1 1016.1 0.0
03/01:30am S 7 9 - - - - 10 Cloudy - 15.1 1016.4 0.0
03/01:00am SSE 8 11 - - - - 10 Cloudy - 15.3 1016.6 0.0
03/12:30am E 8 11 - - - - 10 Cloudy - 17.2 1016.7 0.0
03/12:00am S 3 6 - - - - 10 Cloudy - 14.9 1017.2 0.0
 
Date/Time
EST
Wind Sea
Height
m
Swell Vis
km
Cloud Weather Temp
°C
Press
MSL
hPa
Rain since
9am
mm
Dir  Spd
kts
Gust
kts
Height
m
Period
s
Dir
02/11:30pm SSE 6 8 - - - - 10 Cloudy - 14.8 1017.3 0.0
02/11:00pm SE 6 8 - - - - 10 Cloudy - 14.8 1017.3 0.0
02/10:30pm SSE 7 9 - - - - 10 - - 14.1 1017.5 0.0
02/10:00pm SE 6 9 - - - - 10 Mostly clear - 15.0 1017.7 0.0
02/09:30pm SE 7 8 - - - - 10 Cloudy - 15.3 1017.8 0.0
02/09:00pm SSE 7 9 - - - - 10 Cloudy - 15.5 1017.7 0.0
02/08:30pm SE 5 7 - - - - 10 Cloudy - 15.6 1017.7 0.0
02/08:00pm SSE 6 7 - - - - 10 Cloudy - 15.9 1017.7 0.0
02/07:30pm SE 4 6 - - - - 10 Cloudy - 15.4 1017.7 0.0
02/07:00pm SE 3 3 - - - - 10 Partly cloudy - 14.9 1017.7 0.0
02/06:30pm SSE 6 7 - - - - 10 Partly cloudy - 15.3 1017.5 0.0
02/06:00pm S 2 5 - - - - 10 Cloudy - 16.0 1017.4 0.0
02/05:30pm CALM 0 0 - - - - 10 Partly cloudy - 16.8 1017.3 0.0
02/05:00pm SSE 1 3 - - - - 10 Partly cloudy - 17.7 1017.4 0.0
02/04:30pm NE 6 6 - - - - 10 Cloudy - 17.6 1017.3 0.0
02/04:00pm ENE 7 9 - - - - 10 Cloudy - 17.8 1017.5 0.0
02/03:30pm ENE 11 13 - - - - 10 Cloudy - 18.0 1017.6 0.0
02/03:00pm NE 12 14 - - - - 10 Cloudy - 18.5 1017.8 0.0
02/02:30pm NE 12 15 - - - - 10 - - 19.2 1017.9 0.0
02/02:00pm NE 13 17 - - - - 10 Mostly clear - 18.7 1018.1 0.0
02/01:30pm NE 11 16 - - - - 10 Mostly clear - 19.9 1018.3 0.0
02/01:00pm NE 13 16 - - - - 10 - - 19.4 1018.7 0.0
02/12:30pm NE 10 12 - - - - 10 Mostly clear - 19.2 1019.2 0.0
02/12:00pm N 5 7 - - - - 10 Partly cloudy - 19.4 1019.6 0.0
02/11:30am ENE 5 8 - - - - 10 Mostly clear - 20.5 1020.1 0.0
02/11:00am SSE 8 11 - - - - 10 - - 19.5 1020.5 0.0
02/10:30am SSE 8 11 - - - - 10 - - 18.0 1020.8 0.0
02/10:00am S 9 11 - - - - 10 - - 16.3 1021.0 0.0
02/09:30am SSE 9 11 - - - - 10 - - 15.7 1021.2 0.0
02/09:00am S 8 10 - - - - 10 Mostly clear - 15.5 1021.4 0.0
02/08:30am S 10 13 - - - - 10 - - 14.6 1021.3 0.0
02/08:00am SSE 9 11 - - - - 10 Mostly clear - 13.0 1021.4 0.0
02/07:30am SSE 9 10 - - - - 10 Mostly clear - 12.5 1021.2 0.0
02/07:00am SSE 12 14 - - - - 10 Partly cloudy - 12.8 1021.2 0.0
02/06:30am SSE 11 13 - - - - 10 Partly cloudy - 12.5 1021.4 0.0
02/06:00am SSE 10 12 - - - - 10 Cloudy - 12.1 1021.3 0.0
02/05:30am SSE 10 12 - - - - 10 Partly cloudy - 12.1 1021.3 0.0
02/05:00am SSE 10 11 - - - - 10 Mostly clear - 12.0 1021.4 0.0
02/04:30am SSE 9 11 - - - - 10 Partly cloudy - 11.7 1021.4 0.0
02/04:00am SSE 10 11 - - - - 10 - - 12.3 1021.6 0.0
02/03:30am SSE 10 12 - - - - 10 - - 12.3 1021.7 0.0
02/03:00am SSE 9 10 - - - - 10 - - 11.9 1022.0 0.0
02/02:30am SSE 9 11 - - - - 10 - - 12.5 1022.2 0.0
02/02:00am SSE 10 12 - - - - 10 Mostly clear - 12.9 1022.5 0.0
02/01:30am SSE 9 12 - - - - 10 - - 12.9 1022.7 0.0
02/01:00am SSE 9 12 - - - - 10 Partly cloudy - 13.4 1022.9 0.0
02/12:30am SSE 10 11 - - - - 10 Cloudy - 13.5 1023.3 0.0
02/12:00am SSE 9 11 - - - - 10 Mostly clear - 13.2 1023.4 0.0
 
Date/Time
EST
Wind Sea
Height
m
Swell Vis
km
Cloud Weather Temp
°C
Press
MSL
hPa
Rain since
9am
mm
Dir  Spd
kts
Gust
kts
Height
m
Period
s
Dir
01/11:30pm SSE 9 11 - - - - 10 - - 12.5 1023.5 0.0
01/11:00pm SSE 9 11 - - - - 10 - - 13.1 1023.7 0.0
01/10:30pm SSE 9 10 - - - - 10 - - 13.8 1023.9 0.0
01/10:00pm S 8 9 - - - - 10 - - 14.1 1024.0 0.0
01/09:30pm SSE 8 9 - - - - 10 - - 13.6 1024.1 0.0
01/09:00pm SSE 9 10 - - - - 10 Cloudy - 14.8 1023.9 0.0
01/08:30pm SSE 8 9 - - - - 10 - - 14.0 1023.8 0.0
01/08:00pm S 7 7 - - - - 10 - - 13.3 1023.7 0.0

Other formats

Comma delimited format used in spreadsheet applications
http://www.bom.gov.au/fwo/IDV60701/IDV60701.95960.axf

JavaScript Object Notation format (JSON) in row-major order
http://www.bom.gov.au/fwo/IDV60701/IDV60701.95960.json

Data quality

Most of these data are generated automatically and are frequently updated. Quality checks on data are not normally performed. It is possible for incorrect values to appear. Refer to information at About Latest Weather Observations and please check the disclaimer before using these data.